createdAt,value
2022-12-01T00:02:55.038Z,78.14
2022-12-01T00:06:02.135Z,78.09
2022-12-01T00:09:22.546Z,78.17
2022-12-01T00:12:24.032Z,78.02
2022-12-01T00:15:28.035Z,78.07
2022-12-01T00:18:29.541Z,78.01
2022-12-01T00:21:31.183Z,78.13
2022-12-01T00:24:32.834Z,78.04
2022-12-01T00:27:34.255Z,78.15
2022-12-01T00:30:35.672Z,77.98
2022-12-01T00:33:37.848Z,78.37
2022-12-01T00:36:39.330Z,78.02
2022-12-01T00:39:40.791Z,78.30
2022-12-01T00:42:42.220Z,78.01
2022-12-01T00:45:43.765Z,78.03
2022-12-01T00:48:45.244Z,77.82
2022-12-01T00:51:46.685Z,78.00
2022-12-01T00:54:48.110Z,78.05
2022-12-01T00:57:49.517Z,77.86
2022-12-01T01:00:58.854Z,77.75
2022-12-01T01:04:00.266Z,77.69
2022-12-01T01:07:02.107Z,77.81
2022-12-01T01:10:04.330Z,77.64
2022-12-01T01:13:06.027Z,77.70
2022-12-01T01:16:14.205Z,77.84
2022-12-01T01:19:16.972Z,77.89
2022-12-01T01:22:19.056Z,77.83
2022-12-01T01:25:20.546Z,77.88
2022-12-01T01:28:21.956Z,77.77
2022-12-01T01:31:25.528Z,77.50
2022-12-01T01:34:27.052Z,77.60
2022-12-01T01:37:28.494Z,77.57
2022-12-01T01:40:29.884Z,77.59
2022-12-01T01:43:43.527Z,77.50
2022-12-01T01:46:45.019Z,77.63
2022-12-01T01:49:47.182Z,77.68
2022-12-01T01:52:55.146Z,77.48
2022-12-01T01:55:57.434Z,77.45
2022-12-01T01:58:59.433Z,77.45
2022-12-01T02:02:09.949Z,77.18
2022-12-01T02:05:18.448Z,77.46
2022-12-01T02:08:19.986Z,77.28
2022-12-01T02:11:52.399Z,77.33
2022-12-01T02:15:15.669Z,77.39
2022-12-01T02:18:22.209Z,77.43
2022-12-01T02:21:56.235Z,77.16
2022-12-01T02:25:07.565Z,77.19
2022-12-01T02:28:31.156Z,77.21
2022-12-01T02:31:40.918Z,77.12
2022-12-01T02:35:01.011Z,77.16
2022-12-01T02:38:17.516Z,77.21
2022-12-01T02:41:28.963Z,76.93
2022-12-01T02:44:38.407Z,76.98
2022-12-01T02:47:41.485Z,76.98
2022-12-01T02:50:45.904Z,77.04
2022-12-01T02:53:48.029Z,77.12
2022-12-01T02:56:52.978Z,77.06
2022-12-01T02:59:54.924Z,77.05
2022-12-01T03:03:16.746Z,77.16
2022-12-01T03:06:37.088Z,77.05
2022-12-01T03:09:53.415Z,77.34
2022-12-01T03:13:08.046Z,77.19
2022-12-01T03:16:12.651Z,77.11
2022-12-01T03:19:18.199Z,77.10
2022-12-01T03:22:26.681Z,77.24
2022-12-01T03:25:30.987Z,77.09
2022-12-01T03:28:42.914Z,77.15
2022-12-01T03:31:50.381Z,77.03
2022-12-01T03:34:59.891Z,77.18
2022-12-01T03:38:16.184Z,77.12
2022-12-01T03:41:25.015Z,77.14
2022-12-01T03:44:33.199Z,76.86
2022-12-01T03:47:37.075Z,76.98
2022-12-01T03:50:49.236Z,76.92
2022-12-01T03:54:05.411Z,76.94
2022-12-01T03:57:12.930Z,76.89
2022-12-01T04:00:17.170Z,76.66
2022-12-01T04:03:22.441Z,76.72
2022-12-01T04:06:23.953Z,76.65
2022-12-01T04:09:25.551Z,76.63
2022-12-01T04:12:29.937Z,76.75
2022-12-01T04:15:31.381Z,76.89
2022-12-01T04:18:32.713Z,76.68
2022-12-01T04:21:34.136Z,76.78
2022-12-01T04:24:35.481Z,77.12
2022-12-01T04:27:37.868Z,77.04
2022-12-01T04:30:39.351Z,76.75
2022-12-01T04:33:40.826Z,76.93
2022-12-01T04:36:42.326Z,77.15
2022-12-01T04:39:44.148Z,76.87
2022-12-01T04:42:45.562Z,76.83
2022-12-01T04:45:48.116Z,76.82
2022-12-01T04:48:51.652Z,76.85
2022-12-01T04:51:53.110Z,76.96
2022-12-01T04:54:54.585Z,76.87
2022-12-01T04:57:55.984Z,77.11
2022-12-01T05:01:08.762Z,76.61
2022-12-01T05:04:12.782Z,76.74
2022-12-01T05:07:14.200Z,76.68
2022-12-01T05:10:18.520Z,76.95
2022-12-01T05:13:19.905Z,76.74
2022-12-01T05:16:24.761Z,76.76
2022-12-01T05:19:45.095Z,76.76
2022-12-01T05:23:04.844Z,76.76
2022-12-01T05:26:08.716Z,76.83
2022-12-01T05:29:11.275Z,76.89
2022-12-01T05:32:12.747Z,76.83
2022-12-01T05:35:14.383Z,76.71
2022-12-01T05:38:17.940Z,76.86
2022-12-01T05:41:20.727Z,76.77
2022-12-01T05:44:22.237Z,76.69
2022-12-01T05:47:23.663Z,76.65
2022-12-01T05:50:27.178Z,76.76
2022-12-01T05:53:29.609Z,76.51
2022-12-01T05:56:31.041Z,76.60
2022-12-01T05:59:32.666Z,76.74
2022-12-01T06:02:34.133Z,76.46
2022-12-01T06:05:35.681Z,76.62
2022-12-01T06:08:37.085Z,76.67
2022-12-01T06:11:38.542Z,76.70
2022-12-01T06:14:41.972Z,76.58
2022-12-01T06:17:47.352Z,76.75
2022-12-01T06:20:48.899Z,76.58
2022-12-01T06:23:50.293Z,76.47
2022-12-01T06:26:51.871Z,76.80
2022-12-01T06:29:53.675Z,76.79
2022-12-01T06:32:55.333Z,76.65
2022-12-01T06:36:07.225Z,76.57
2022-12-01T06:39:12.289Z,76.75
2022-12-01T06:42:13.761Z,76.52
2022-12-01T06:45:15.424Z,76.42
2022-12-01T06:48:16.977Z,76.35
2022-12-01T06:51:18.499Z,76.68
2022-12-01T06:54:27.055Z,76.61
2022-12-01T06:57:31.114Z,76.27
2022-12-01T07:00:34.520Z,76.30
2022-12-01T07:03:38.394Z,76.26
2022-12-01T07:06:40.158Z,76.22
2022-12-01T07:09:41.830Z,76.37
2022-12-01T07:12:43.392Z,76.28
2022-12-01T07:15:51.446Z,76.26
2022-12-01T07:18:55.269Z,76.20
2022-12-01T07:25:21.859Z,76.35
2022-12-01T07:25:50.366Z,76.16
2022-12-01T07:29:02.729Z,76.16
2022-12-01T07:32:04.522Z,76.47
2022-12-01T07:35:06.258Z,76.29
2022-12-01T07:38:07.732Z,76.18
2022-12-01T07:41:14.475Z,76.05
2022-12-01T07:44:16.215Z,75.96
2022-12-01T07:47:17.793Z,75.93
2022-12-01T07:50:19.503Z,76.05
2022-12-01T07:53:21.149Z,76.02
2022-12-01T07:56:23.080Z,76.25
2022-12-01T07:59:25.090Z,76.17
2022-12-01T08:02:26.701Z,76.12
2022-12-01T08:05:28.304Z,76.02
2022-12-01T08:08:31.708Z,75.93
2022-12-01T08:11:33.390Z,76.22
2022-12-01T08:14:34.825Z,76.03
2022-12-01T08:17:36.574Z,76.17
2022-12-01T08:20:38.063Z,76.05
2022-12-01T08:23:41.530Z,75.92
2022-12-01T08:26:43.905Z,76.00
2022-12-01T08:29:45.457Z,76.21
2022-12-01T08:32:47.075Z,76.08
2022-12-01T08:35:48.566Z,76.07
2022-12-01T08:38:55.136Z,76.15
2022-12-01T08:41:56.732Z,76.06
2022-12-01T08:46:17.434Z,75.86
2022-12-01T08:50:56.502Z,75.62
2022-12-01T09:10:12.138Z,76.08
2022-12-01T12:15:05.572Z,68.82
2022-12-01T12:47:43.888Z,69.55
2022-12-01T12:52:05.072Z,69.71
2022-12-01T15:10:37.448Z,66.69
2022-12-01T15:13:55.009Z,67.76
2022-12-01T15:17:03.559Z,68.16
2022-12-01T15:45:37.944Z,69.30
2022-12-01T15:48:51.296Z,69.69
2022-12-01T15:56:02.630Z,70.60
2022-12-01T15:59:35.326Z,70.58
2022-12-01T16:02:40.566Z,70.53
2022-12-01T16:05:45.408Z,70.57
2022-12-01T16:08:56.444Z,70.68
2022-12-01T16:12:12.585Z,71.06
2022-12-01T16:15:22.949Z,71.11
2022-12-01T16:18:33.216Z,71.05
2022-12-01T16:21:57.338Z,71.31
2022-12-01T16:25:04.790Z,71.31
2022-12-01T16:28:59.575Z,71.22
2022-12-01T16:32:21.370Z,71.67
2022-12-01T16:35:31.979Z,71.98
2022-12-01T16:38:38.153Z,71.83
2022-12-01T16:41:59.516Z,71.83
2022-12-01T16:45:03.073Z,72.17
2022-12-01T16:48:19.704Z,71.67
2022-12-01T16:51:30.037Z,71.67
2022-12-01T16:54:53.928Z,71.70
2022-12-01T16:57:58.035Z,71.79
2022-12-01T17:01:11.106Z,71.79
2022-12-01T17:04:20.788Z,71.72
2022-12-01T17:07:24.016Z,71.68
2022-12-01T17:10:30.784Z,71.71
2022-12-01T17:13:41.874Z,71.82
2022-12-01T17:16:48.229Z,71.82
2022-12-01T17:19:59.274Z,71.86
2022-12-01T17:23:30.573Z,71.86
2022-12-01T17:26:38.066Z,72.04
2022-12-01T17:29:46.988Z,71.91
2022-12-01T17:33:09.761Z,71.88
2022-12-01T17:36:15.525Z,71.88
2022-12-01T17:39:24.550Z,71.96
2022-12-01T17:42:35.986Z,72.28
2022-12-01T17:45:47.107Z,72.36
2022-12-01T17:48:58.719Z,72.32
2022-12-01T17:52:11.987Z,72.52
2022-12-01T17:55:20.922Z,72.26
2022-12-01T17:58:46.149Z,72.21
2022-12-01T18:02:04.293Z,72.27
2022-12-01T18:05:30.859Z,72.39
2022-12-01T18:08:55.543Z,72.46
2022-12-01T18:20:37.440Z,72.70
2022-12-01T18:24:45.566Z,72.68
2022-12-01T18:28:09.718Z,72.81
2022-12-01T18:39:39.103Z,72.97
2022-12-01T18:43:36.922Z,73.02
2022-12-01T18:52:16.214Z,73.27
2022-12-01T19:03:53.607Z,73.26
2022-12-01T19:05:44.468Z,73.24
2022-12-01T19:07:44.436Z,73.29
2022-12-01T19:12:12.696Z,73.33
2022-12-01T19:20:04.140Z,73.36
2022-12-01T19:21:24.929Z,73.39
2022-12-01T19:25:12.586Z,73.19
2022-12-01T19:29:17.158Z,73.33
2022-12-01T20:25:38.788Z,72.17
2022-12-01T20:36:15.269Z,72.66
2022-12-01T20:44:06.891Z,72.74
2022-12-01T20:48:00.487Z,72.78
2022-12-01T20:51:21.547Z,72.75
2022-12-01T20:54:31.014Z,73.02
2022-12-01T20:58:06.631Z,72.83
2022-12-01T21:01:29.388Z,72.90
2022-12-01T21:04:38.659Z,73.07
2022-12-01T21:08:06.483Z,72.89
2022-12-01T21:12:09.324Z,73.02
2022-12-01T21:16:09.586Z,72.91
2022-12-01T21:20:04.662Z,72.94
2022-12-01T21:27:33.123Z,72.81
2022-12-01T21:30:50.825Z,72.96
2022-12-01T21:34:02.920Z,72.96
2022-12-01T21:38:03.296Z,72.93
2022-12-01T21:41:56.266Z,72.96
2022-12-01T21:45:34.851Z,72.91
2022-12-01T21:48:39.165Z,72.95
2022-12-01T21:55:39.276Z,72.84
2022-12-01T21:59:42.186Z,72.91
2022-12-01T22:03:03.881Z,72.81
2022-12-01T22:10:56.110Z,72.74
2022-12-01T22:14:36.367Z,72.65
2022-12-01T22:18:59.142Z,72.73
2022-12-01T22:22:28.173Z,72.75
2022-12-01T22:25:57.303Z,72.63
2022-12-01T22:29:01.341Z,72.63
2022-12-01T22:32:32.201Z,72.42
2022-12-01T22:35:53.724Z,72.11
2022-12-01T22:39:03.017Z,72.06
2022-12-01T22:42:13.624Z,72.35
2022-12-01T22:45:24.076Z,72.48
2022-12-01T22:48:40.867Z,72.37
2022-12-01T22:51:50.625Z,72.33
2022-12-01T22:54:52.548Z,72.27
2022-12-01T22:57:57.580Z,71.90
2022-12-01T23:01:10.493Z,72.03
2022-12-01T23:04:32.736Z,71.77
2022-12-01T23:07:36.392Z,71.62
2022-12-01T23:10:39.716Z,71.80
2022-12-01T23:13:41.381Z,71.68
2022-12-01T23:16:43.039Z,71.53
2022-12-01T23:19:49.087Z,71.73
2022-12-01T23:22:56.569Z,71.44
2022-12-01T23:26:00.840Z,71.70
2022-12-01T23:29:02.464Z,71.56
2022-12-01T23:32:04.224Z,71.44
2022-12-01T23:35:13.159Z,71.55
2022-12-01T23:38:22.219Z,71.65
2022-12-01T23:41:38.284Z,71.71
2022-12-01T23:44:44.982Z,71.42
2022-12-01T23:47:47.101Z,71.52
2022-12-01T23:50:52.522Z,71.33
2022-12-01T23:53:56.874Z,71.20
2022-12-01T23:57:02.928Z,71.52
